EWG1GM LOWW-EDDK
Flight info
| Callsign | EWG1GM |
|---|---|
| Flight time | 1h 6m |
| Altitude | 32000 |
| Route | BUWUT DCT DITIS DCT RAPET T843 VELIS DCT MASEK T841 ERNEP ERNEP1B |
| Aircraft | A320/M-SDE3FGHIRWY/LB1 |
Departure
| Time | 2026-04-20 17:58 |
|---|---|
| Airport | Vienna International Airport (LOWW) |
Arrival
| Time | 2026-04-20 19:04 |
|---|---|
| Airport | Cologne Bonn Airport (EDDK) |
| Time | Latitude | Longitude | Altitude | Speed | Heading |
|---|---|---|---|---|---|
| 2026-04-20 17:14 | 48.11955 | 16.55591 | 621 ft | 0 kts | 64° |
| 2026-04-20 17:49 | 48.11950 | 16.55578 | 609 ft | 4 kts | 60° |
| 2026-04-20 17:49 | 48.11935 | 16.55545 | 614 ft | 4 kts | 43° |
| 2026-04-20 17:50 | 48.11913 | 16.55522 | 622 ft | 4 kts | 21° |
| 2026-04-20 17:50 | 48.11888 | 16.55514 | 617 ft | 4 kts | 347° |
| 2026-04-20 17:50 | 48.11869 | 16.55529 | 618 ft | 1 kts | 296° |
| 2026-04-20 17:52 | 48.11876 | 16.55507 | 622 ft | 7 kts | 291° |
| 2026-04-20 17:53 | 48.11860 | 16.55435 | 616 ft | 7 kts | 219° |
| 2026-04-20 17:53 | 48.11808 | 16.55443 | 617 ft | 14 kts | 134° |
| 2026-04-20 17:53 | 48.11758 | 16.55589 | 618 ft | 15 kts | 115° |
| 2026-04-20 17:53 | 48.11710 | 16.55738 | 617 ft | 20 kts | 116° |
| 2026-04-20 17:54 | 48.11646 | 16.55933 | 611 ft | 21 kts | 116° |
| 2026-04-20 17:54 | 48.11582 | 16.56130 | 616 ft | 22 kts | 116° |
| 2026-04-20 17:54 | 48.11515 | 16.56338 | 620 ft | 23 kts | 116° |
| 2026-04-20 17:54 | 48.11443 | 16.56556 | 617 ft | 24 kts | 117° |
| 2026-04-20 17:55 | 48.11369 | 16.56784 | 623 ft | 25 kts | 116° |
| 2026-04-20 17:55 | 48.11292 | 16.57022 | 618 ft | 26 kts | 116° |
| 2026-04-20 17:55 | 48.11211 | 16.57269 | 616 ft | 27 kts | 116° |
| 2026-04-20 17:55 | 48.11129 | 16.57519 | 618 ft | 22 kts | 116° |
| 2026-04-20 17:56 | 48.11090 | 16.57633 | 614 ft | 10 kts | 126° |
| 2026-04-20 17:56 | 48.11037 | 16.57643 | 609 ft | 8 kts | 204° |
| 2026-04-20 17:56 | 48.10982 | 16.57603 | 612 ft | 13 kts | 206° |
| 2026-04-20 17:56 | 48.10917 | 16.57552 | 616 ft | 5 kts | 212° |
| 2026-04-20 17:57 | 48.10929 | 16.57485 | 616 ft | 21 kts | 297° |
| 2026-04-20 17:57 | 48.11112 | 16.56932 | 609 ft | 93 kts | 296° |
| 2026-04-20 17:57 | 48.11483 | 16.55795 | 617 ft | 147 kts | 296° |
| 2026-04-20 17:57 | 48.11950 | 16.54291 | 1021 ft | 158 kts | 297° |
| 2026-04-20 17:58 | 48.12224 | 16.52720 | 1748 ft | 164 kts | 266° |
| 2026-04-20 17:58 | 48.12020 | 16.50921 | 2100 ft | 186 kts | 264° |
| 2026-04-20 17:58 | 48.11864 | 16.49621 | 2327 ft | 198 kts | 264° |
| 2026-04-20 17:58 | 48.11657 | 16.47476 | 2636 ft | 219 kts | 272° |
| 2026-04-20 17:59 | 48.11846 | 16.45111 | 3071 ft | 241 kts | 282° |
| 2026-04-20 17:59 | 48.12119 | 16.42558 | 3729 ft | 252 kts | 281° |
| 2026-04-20 17:59 | 48.12473 | 16.39092 | 4949 ft | 257 kts | 281° |
| 2026-04-20 17:59 | 48.12740 | 16.36443 | 5884 ft | 257 kts | 280° |
| 2026-04-20 18:00 | 48.12920 | 16.34653 | 6531 ft | 257 kts | 280° |
| 2026-04-20 18:00 | 48.13186 | 16.32009 | 7434 ft | 257 kts | 280° |
| 2026-04-20 18:00 | 48.13457 | 16.29351 | 8341 ft | 259 kts | 279° |
| 2026-04-20 18:00 | 48.13732 | 16.26680 | 9230 ft | 260 kts | 279° |
| 2026-04-20 18:01 | 48.14221 | 16.24079 | 10069 ft | 262 kts | 296° |
| 2026-04-20 18:01 | 48.15337 | 16.21922 | 10699 ft | 274 kts | 312° |
| 2026-04-20 18:01 | 48.16745 | 16.19815 | 10917 ft | 298 kts | 313° |
| 2026-04-20 18:01 | 48.18295 | 16.17569 | 11099 ft | 321 kts | 314° |
| 2026-04-20 18:02 | 48.19962 | 16.15178 | 11221 ft | 342 kts | 314° |
| 2026-04-20 18:02 | 48.21733 | 16.12636 | 11380 ft | 362 kts | 314° |
| 2026-04-20 18:02 | 48.23577 | 16.09979 | 11806 ft | 370 kts | 314° |
| 2026-04-20 18:02 | 48.25441 | 16.07279 | 12386 ft | 375 kts | 314° |
| 2026-04-20 18:03 | 48.27320 | 16.04548 | 12996 ft | 378 kts | 314° |
| 2026-04-20 18:03 | 48.29221 | 16.01775 | 13597 ft | 381 kts | 314° |
| 2026-04-20 18:03 | 48.31121 | 15.98993 | 14146 ft | 384 kts | 314° |
| 2026-04-20 18:03 | 48.33039 | 15.96182 | 14682 ft | 387 kts | 313° |
| 2026-04-20 18:04 | 48.34970 | 15.93351 | 15202 ft | 389 kts | 313° |
| 2026-04-20 18:04 | 48.36916 | 15.90499 | 15723 ft | 392 kts | 313° |
| 2026-04-20 18:04 | 48.38872 | 15.87622 | 16226 ft | 394 kts | 313° |
| 2026-04-20 18:04 | 48.40834 | 15.84735 | 16732 ft | 397 kts | 313° |
| 2026-04-20 18:05 | 48.44809 | 15.78884 | 17749 ft | 401 kts | 313° |
| 2026-04-20 18:05 | 48.46815 | 15.75926 | 18230 ft | 404 kts | 313° |
| 2026-04-20 18:05 | 48.48825 | 15.72957 | 18656 ft | 406 kts | 313° |
| 2026-04-20 18:06 | 48.50848 | 15.69966 | 19081 ft | 408 kts | 313° |
| 2026-04-20 18:06 | 48.52854 | 15.66995 | 19481 ft | 410 kts | 313° |
| 2026-04-20 18:06 | 48.54891 | 15.63975 | 19913 ft | 411 kts | 313° |
| 2026-04-20 18:06 | 48.56937 | 15.60941 | 20303 ft | 413 kts | 313° |
| 2026-04-20 18:07 | 48.58991 | 15.57893 | 20688 ft | 415 kts | 313° |
| 2026-04-20 18:07 | 48.61047 | 15.54831 | 21060 ft | 416 kts | 313° |
| 2026-04-20 18:07 | 48.63118 | 15.51745 | 21438 ft | 418 kts | 313° |
| 2026-04-20 18:07 | 48.65199 | 15.48643 | 21813 ft | 420 kts | 313° |
| 2026-04-20 18:08 | 48.67287 | 15.45529 | 22177 ft | 422 kts | 313° |
| 2026-04-20 18:08 | 48.69377 | 15.42408 | 22515 ft | 423 kts | 313° |
| 2026-04-20 18:08 | 48.71479 | 15.39264 | 22867 ft | 425 kts | 312° |
| 2026-04-20 18:08 | 48.73586 | 15.36104 | 23196 ft | 427 kts | 312° |
| 2026-04-20 18:09 | 48.75696 | 15.32930 | 23530 ft | 429 kts | 312° |
| 2026-04-20 18:09 | 48.77795 | 15.29765 | 23808 ft | 430 kts | 312° |
| 2026-04-20 18:09 | 48.79918 | 15.26569 | 24093 ft | 431 kts | 312° |
| 2026-04-20 18:09 | 48.82047 | 15.23359 | 24487 ft | 429 kts | 312° |
| 2026-04-20 18:10 | 48.84162 | 15.20172 | 24868 ft | 428 kts | 312° |
| 2026-04-20 18:10 | 48.86273 | 15.16986 | 25248 ft | 427 kts | 312° |
| 2026-04-20 18:10 | 48.88378 | 15.13801 | 25627 ft | 426 kts | 312° |
| 2026-04-20 18:10 | 48.90369 | 15.10479 | 26004 ft | 423 kts | 306° |
| 2026-04-20 18:11 | 48.92123 | 15.06895 | 26385 ft | 422 kts | 304° |
| 2026-04-20 18:11 | 48.93870 | 15.03312 | 26781 ft | 421 kts | 304° |
| 2026-04-20 18:11 | 48.95617 | 14.99729 | 27178 ft | 420 kts | 304° |
| 2026-04-20 18:11 | 48.97361 | 14.96157 | 27589 ft | 420 kts | 305° |
| 2026-04-20 18:12 | 48.99103 | 14.92588 | 27970 ft | 419 kts | 305° |
| 2026-04-20 18:12 | 49.00838 | 14.89030 | 28367 ft | 419 kts | 305° |
| 2026-04-20 18:12 | 49.02575 | 14.85462 | 28771 ft | 418 kts | 305° |
| 2026-04-20 18:12 | 49.04287 | 14.81940 | 29162 ft | 417 kts | 305° |
| 2026-04-20 18:13 | 49.06010 | 14.78383 | 29550 ft | 417 kts | 305° |
| 2026-04-20 18:13 | 49.07750 | 14.74780 | 29931 ft | 417 kts | 305° |
| 2026-04-20 18:13 | 49.09448 | 14.71259 | 30051 ft | 417 kts | 305° |
| 2026-04-20 18:13 | 49.11169 | 14.67687 | 30043 ft | 417 kts | 305° |
| 2026-04-20 18:14 | 49.14599 | 14.60552 | 30050 ft | 417 kts | 305° |
| 2026-04-20 18:14 | 49.18037 | 14.53399 | 30059 ft | 418 kts | 305° |
| 2026-04-20 18:15 | 49.21475 | 14.46230 | 30044 ft | 418 kts | 305° |
| 2026-04-20 18:15 | 49.24910 | 14.39036 | 30047 ft | 418 kts | 305° |
| 2026-04-20 18:16 | 49.28340 | 14.31833 | 30052 ft | 419 kts | 305° |
| 2026-04-20 18:16 | 49.31772 | 14.24599 | 30055 ft | 420 kts | 306° |
| 2026-04-20 18:17 | 49.35195 | 14.17362 | 30056 ft | 420 kts | 306° |
| 2026-04-20 18:17 | 49.38633 | 14.10090 | 30061 ft | 421 kts | 306° |
| 2026-04-20 18:18 | 49.42070 | 14.02800 | 30065 ft | 422 kts | 306° |
| 2026-04-20 18:18 | 49.45508 | 13.95480 | 30059 ft | 422 kts | 306° |
| 2026-04-20 18:19 | 49.48942 | 13.88140 | 30059 ft | 422 kts | 306° |
| 2026-04-20 18:19 | 49.52376 | 13.80791 | 30067 ft | 422 kts | 306° |
| 2026-04-20 18:20 | 49.55784 | 13.73485 | 30060 ft | 422 kts | 306° |
| 2026-04-20 18:20 | 49.59208 | 13.66126 | 30075 ft | 422 kts | 306° |
| 2026-04-20 18:21 | 49.62619 | 13.58755 | 30077 ft | 422 kts | 306° |
| 2026-04-20 18:21 | 49.66025 | 13.51365 | 30081 ft | 422 kts | 306° |
| 2026-04-20 18:22 | 49.69435 | 13.43973 | 30081 ft | 423 kts | 306° |
| 2026-04-20 18:22 | 49.72841 | 13.36569 | 30084 ft | 423 kts | 306° |
| 2026-04-20 18:23 | 49.76237 | 13.29147 | 30083 ft | 423 kts | 306° |
| 2026-04-20 18:23 | 49.79644 | 13.21695 | 30080 ft | 423 kts | 306° |
| 2026-04-20 18:24 | 49.83043 | 13.14222 | 30083 ft | 423 kts | 306° |
| 2026-04-20 18:24 | 49.86419 | 13.06803 | 30079 ft | 424 kts | 306° |
| 2026-04-20 18:25 | 49.89819 | 12.99302 | 30082 ft | 424 kts | 306° |
| 2026-04-20 18:25 | 49.93211 | 12.91798 | 30069 ft | 425 kts | 306° |
| 2026-04-20 18:26 | 49.96607 | 12.84258 | 30073 ft | 426 kts | 306° |
| 2026-04-20 18:26 | 50.00004 | 12.76704 | 30070 ft | 426 kts | 306° |
| 2026-04-20 18:27 | 50.03397 | 12.69129 | 30074 ft | 427 kts | 306° |
| 2026-04-20 18:27 | 50.06783 | 12.61531 | 30075 ft | 428 kts | 306° |
| 2026-04-20 18:28 | 50.10175 | 12.53911 | 30088 ft | 428 kts | 306° |
| 2026-04-20 18:28 | 50.13572 | 12.46273 | 30090 ft | 429 kts | 306° |
| 2026-04-20 18:29 | 50.16962 | 12.38617 | 30098 ft | 429 kts | 306° |
| 2026-04-20 18:29 | 50.19589 | 12.30324 | 30102 ft | 433 kts | 288° |
| 2026-04-20 18:30 | 50.21048 | 12.21187 | 30109 ft | 434 kts | 286° |
| 2026-04-20 18:30 | 50.22500 | 12.12025 | 30110 ft | 435 kts | 286° |
| 2026-04-20 18:31 | 50.23949 | 12.02842 | 30110 ft | 436 kts | 285° |
| 2026-04-20 18:31 | 50.25376 | 11.93623 | 30109 ft | 436 kts | 285° |
| 2026-04-20 18:32 | 50.26807 | 11.84417 | 30111 ft | 436 kts | 285° |
| 2026-04-20 18:32 | 50.28234 | 11.75189 | 30112 ft | 437 kts | 285° |
| 2026-04-20 18:33 | 50.29651 | 11.65923 | 30114 ft | 438 kts | 285° |
| 2026-04-20 18:33 | 50.31057 | 11.56706 | 30117 ft | 438 kts | 285° |
| 2026-04-20 18:34 | 50.32455 | 11.47381 | 30118 ft | 439 kts | 284° |
| 2026-04-20 18:34 | 50.33838 | 11.38053 | 30122 ft | 440 kts | 284° |
| 2026-04-20 18:35 | 50.35212 | 11.28703 | 30126 ft | 440 kts | 284° |
| 2026-04-20 18:35 | 50.36575 | 11.19340 | 30129 ft | 441 kts | 284° |
| 2026-04-20 18:36 | 50.37945 | 11.09955 | 30128 ft | 442 kts | 284° |
| 2026-04-20 18:36 | 50.39316 | 11.00525 | 30136 ft | 450 kts | 284° |
| 2026-04-20 18:37 | 50.40704 | 10.90911 | 30135 ft | 452 kts | 284° |
| 2026-04-20 18:37 | 50.42075 | 10.81285 | 30139 ft | 452 kts | 283° |
| 2026-04-20 18:38 | 50.43433 | 10.71644 | 30142 ft | 453 kts | 283° |
| 2026-04-20 18:38 | 50.44823 | 10.62013 | 30142 ft | 452 kts | 285° |
| 2026-04-20 18:39 | 50.46849 | 10.54472 | 30135 ft | 451 kts | 296° |
| 2026-04-20 18:39 | 50.49584 | 10.45600 | 30135 ft | 452 kts | 296° |
| 2026-04-20 18:40 | 50.52315 | 10.36700 | 30132 ft | 452 kts | 296° |
| 2026-04-20 18:40 | 50.55024 | 10.27780 | 29704 ft | 450 kts | 296° |
| 2026-04-20 18:41 | 50.56372 | 10.23322 | 28483 ft | 454 kts | 296° |
| 2026-04-20 18:41 | 50.57740 | 10.18798 | 27184 ft | 461 kts | 296° |
| 2026-04-20 18:41 | 50.59133 | 10.14205 | 26015 ft | 469 kts | 296° |
| 2026-04-20 18:41 | 50.60547 | 10.09540 | 25422 ft | 475 kts | 296° |
| 2026-04-20 18:42 | 50.61975 | 10.04814 | 25179 ft | 479 kts | 296° |
| 2026-04-20 18:42 | 50.63406 | 10.00058 | 25143 ft | 481 kts | 296° |
| 2026-04-20 18:42 | 50.64837 | 9.95290 | 25163 ft | 482 kts | 296° |
| 2026-04-20 18:42 | 50.66273 | 9.90499 | 25160 ft | 483 kts | 296° |
| 2026-04-20 18:43 | 50.67706 | 9.85708 | 25163 ft | 483 kts | 296° |
| 2026-04-20 18:43 | 50.69136 | 9.80914 | 25163 ft | 483 kts | 296° |
| 2026-04-20 18:43 | 50.70565 | 9.76120 | 25165 ft | 483 kts | 296° |
| 2026-04-20 18:43 | 50.71996 | 9.71313 | 25160 ft | 484 kts | 296° |
| 2026-04-20 18:44 | 50.73425 | 9.66500 | 25160 ft | 484 kts | 296° |
| 2026-04-20 18:44 | 50.74851 | 9.61682 | 25158 ft | 484 kts | 296° |
| 2026-04-20 18:44 | 50.76248 | 9.56939 | 24895 ft | 480 kts | 295° |
| 2026-04-20 18:44 | 50.77657 | 9.52157 | 23937 ft | 478 kts | 295° |
| 2026-04-20 18:45 | 50.78864 | 9.47294 | 23018 ft | 474 kts | 285° |
| 2026-04-20 18:45 | 50.79325 | 9.42179 | 22184 ft | 469 kts | 270° |
| 2026-04-20 18:45 | 50.79205 | 9.37064 | 21363 ft | 464 kts | 267° |
| 2026-04-20 18:45 | 50.79030 | 9.31989 | 20594 ft | 459 kts | 266° |
| 2026-04-20 18:46 | 50.78846 | 9.26987 | 19873 ft | 454 kts | 266° |
| 2026-04-20 18:46 | 50.78656 | 9.22035 | 19175 ft | 449 kts | 266° |
| 2026-04-20 18:46 | 50.78464 | 9.17115 | 18495 ft | 445 kts | 266° |
| 2026-04-20 18:46 | 50.78276 | 9.12260 | 17742 ft | 441 kts | 266° |
| 2026-04-20 18:47 | 50.78088 | 9.07456 | 17018 ft | 436 kts | 266° |
| 2026-04-20 18:47 | 50.77902 | 9.02693 | 16333 ft | 432 kts | 266° |
| 2026-04-20 18:47 | 50.77721 | 8.97985 | 15650 ft | 427 kts | 266° |
| 2026-04-20 18:47 | 50.77541 | 8.93299 | 15261 ft | 426 kts | 266° |
| 2026-04-20 18:48 | 50.77359 | 8.88640 | 15128 ft | 425 kts | 266° |
| 2026-04-20 18:48 | 50.77173 | 8.83977 | 15172 ft | 426 kts | 266° |
| 2026-04-20 18:48 | 50.76986 | 8.79309 | 15163 ft | 425 kts | 266° |
| 2026-04-20 18:48 | 50.76795 | 8.74661 | 15160 ft | 417 kts | 266° |
| 2026-04-20 18:49 | 50.76610 | 8.70203 | 15165 ft | 396 kts | 266° |
| 2026-04-20 18:49 | 50.76426 | 8.65848 | 15170 ft | 400 kts | 266° |
| 2026-04-20 18:49 | 50.76242 | 8.61507 | 15172 ft | 402 kts | 266° |
| 2026-04-20 18:49 | 50.76054 | 8.57050 | 15167 ft | 402 kts | 266° |
| 2026-04-20 18:50 | 50.75870 | 8.52710 | 15162 ft | 399 kts | 266° |
| 2026-04-20 18:50 | 50.75684 | 8.48424 | 15153 ft | 383 kts | 266° |
| 2026-04-20 18:50 | 50.75501 | 8.44262 | 15154 ft | 378 kts | 266° |
| 2026-04-20 18:50 | 50.75320 | 8.40136 | 15157 ft | 377 kts | 266° |
| 2026-04-20 18:51 | 50.75139 | 8.36008 | 15146 ft | 376 kts | 266° |
| 2026-04-20 18:51 | 50.74960 | 8.31895 | 14885 ft | 373 kts | 266° |
| 2026-04-20 18:51 | 50.74780 | 8.27827 | 14405 ft | 370 kts | 266° |
| 2026-04-20 18:51 | 50.74597 | 8.23778 | 13943 ft | 367 kts | 266° |
| 2026-04-20 18:52 | 50.74412 | 8.19771 | 13434 ft | 365 kts | 266° |
| 2026-04-20 18:52 | 50.74226 | 8.15796 | 12925 ft | 362 kts | 266° |
| 2026-04-20 18:52 | 50.74043 | 8.11852 | 12395 ft | 359 kts | 266° |
| 2026-04-20 18:52 | 50.73861 | 8.07939 | 11884 ft | 356 kts | 266° |
| 2026-04-20 18:53 | 50.73679 | 8.04061 | 11439 ft | 351 kts | 266° |
| 2026-04-20 18:53 | 50.73500 | 8.00297 | 11303 ft | 337 kts | 266° |
| 2026-04-20 18:53 | 50.73323 | 7.96667 | 11179 ft | 325 kts | 266° |
| 2026-04-20 18:53 | 50.73152 | 7.93173 | 11054 ft | 314 kts | 266° |
| 2026-04-20 18:54 | 50.72991 | 7.89835 | 10933 ft | 304 kts | 266° |
| 2026-04-20 18:54 | 50.72834 | 7.86549 | 10743 ft | 296 kts | 267° |
| 2026-04-20 18:54 | 50.72680 | 7.83327 | 10446 ft | 293 kts | 267° |
| 2026-04-20 18:54 | 50.72528 | 7.80139 | 9864 ft | 290 kts | 267° |
| 2026-04-20 18:55 | 50.72375 | 7.76980 | 9217 ft | 287 kts | 267° |
| 2026-04-20 18:55 | 50.72222 | 7.73866 | 8609 ft | 283 kts | 267° |
| 2026-04-20 18:55 | 50.72067 | 7.70785 | 8004 ft | 279 kts | 267° |
| 2026-04-20 18:55 | 50.71914 | 7.67752 | 7411 ft | 275 kts | 267° |
| 2026-04-20 18:56 | 50.71763 | 7.64763 | 6832 ft | 272 kts | 267° |
| 2026-04-20 18:56 | 50.71615 | 7.61806 | 6228 ft | 268 kts | 267° |
| 2026-04-20 18:56 | 50.71468 | 7.58887 | 5586 ft | 265 kts | 267° |
| 2026-04-20 18:56 | 50.71320 | 7.55995 | 5053 ft | 260 kts | 267° |
| 2026-04-20 18:57 | 50.71178 | 7.53270 | 4914 ft | 240 kts | 267° |
| 2026-04-20 18:57 | 50.71041 | 7.50721 | 4646 ft | 228 kts | 268° |
| 2026-04-20 18:57 | 50.70910 | 7.48245 | 4383 ft | 226 kts | 268° |
| 2026-04-20 18:57 | 50.70782 | 7.45774 | 4123 ft | 225 kts | 268° |
| 2026-04-20 18:58 | 50.70654 | 7.43323 | 3827 ft | 224 kts | 268° |
| 2026-04-20 18:58 | 50.70540 | 7.40886 | 3521 ft | 222 kts | 273° |
| 2026-04-20 18:58 | 50.70825 | 7.38537 | 3179 ft | 217 kts | 296° |
| 2026-04-20 18:58 | 50.71624 | 7.36609 | 2990 ft | 208 kts | 317° |
| 2026-04-20 18:59 | 50.72692 | 7.35048 | 3008 ft | 212 kts | 320° |
| 2026-04-20 18:59 | 50.73790 | 7.33473 | 3030 ft | 213 kts | 320° |
| 2026-04-20 18:59 | 50.74892 | 7.31890 | 3029 ft | 214 kts | 320° |
| 2026-04-20 18:59 | 50.75978 | 7.30328 | 2899 ft | 209 kts | 320° |
| 2026-04-20 19:00 | 50.77048 | 7.28789 | 2637 ft | 204 kts | 320° |
| 2026-04-20 19:00 | 50.78071 | 7.27316 | 2384 ft | 195 kts | 321° |
| 2026-04-20 19:00 | 50.79047 | 7.25908 | 2139 ft | 183 kts | 321° |
| 2026-04-20 19:00 | 50.79951 | 7.24604 | 1898 ft | 169 kts | 321° |
| 2026-04-20 19:01 | 50.80780 | 7.23409 | 1670 ft | 152 kts | 321° |
| 2026-04-20 19:01 | 50.81529 | 7.22329 | 1437 ft | 142 kts | 320° |
| 2026-04-20 19:01 | 50.82245 | 7.21297 | 1238 ft | 138 kts | 320° |
| 2026-04-20 19:01 | 50.82951 | 7.20278 | 1042 ft | 137 kts | 320° |
| 2026-04-20 19:02 | 50.83646 | 7.19265 | 841 ft | 135 kts | 319° |
| 2026-04-20 19:02 | 50.84347 | 7.18260 | 680 ft | 137 kts | 320° |
| 2026-04-20 19:02 | 50.85056 | 7.17242 | 486 ft | 138 kts | 320° |
| 2026-04-20 19:02 | 50.85757 | 7.16221 | 316 ft | 135 kts | 320° |
| 2026-04-20 19:03 | 50.86367 | 7.15346 | 285 ft | 100 kts | 317° |
| 2026-04-20 19:03 | 50.86831 | 7.14670 | 264 ft | 81 kts | 317° |
| 2026-04-20 19:03 | 50.87211 | 7.14121 | 246 ft | 67 kts | 317° |
| 2026-04-20 19:03 | 50.87522 | 7.13669 | 240 ft | 56 kts | 318° |
| 2026-04-20 19:04 | 50.87794 | 7.13273 | 239 ft | 51 kts | 317° |
| 2026-04-20 19:04 | 50.87973 | 7.13008 | 239 ft | 20 kts | 315° |
| 2026-04-20 19:04 | 50.88007 | 7.12829 | 238 ft | 18 kts | 265° |
| 2026-04-20 19:04 | 50.87983 | 7.12694 | 235 ft | 10 kts | 259° |
| 2026-04-20 19:05 | 50.87996 | 7.12585 | 234 ft | 10 kts | 294° |
| 2026-04-20 19:05 | 50.88027 | 7.12498 | 234 ft | 9 kts | 300° |
| 2026-04-20 19:05 | 50.88060 | 7.12409 | 232 ft | 5 kts | 302° |
| 2026-04-20 19:05 | 50.88062 | 7.12396 | 232 ft | 3 kts | 275° |
| 2026-04-20 19:06 | 50.88045 | 7.12364 | 234 ft | 4 kts | 217° |
| 2026-04-20 19:06 | 50.88013 | 7.12327 | 232 ft | 7 kts | 216° |
| 2026-04-20 19:06 | 50.87981 | 7.12283 | 232 ft | 5 kts | 233° |
| 2026-04-20 19:06 | 50.87977 | 7.12236 | 232 ft | 4 kts | 274° |
| 2026-04-20 19:07 | 50.87979 | 7.12203 | 232 ft | 1 kts | 276° |
| 2026-04-20 19:07 | 50.87979 | 7.12201 | 232 ft | 0 kts | 276° |
| 2026-04-20 19:13 | 50.87980 | 7.12201 | 232 ft | 0 kts | 276° |